WetterOnline ( https://www.wetteronline.de )

Wetter aktuell Bochum

Aktuelles Wetter: Essen (161m)

6-stündlich | Neueste Meldungen
Ortszeit Temperatur Wetter
Mo, 02.08. 20:00 14.3° C bedeckt
Mo, 02.08. 14:00 16.9° C bewölkt
Mo, 02.08. 8:00 13.6° C bedeckt
Mo, 02.08. 2:00 14.5° C bedeckt
So, 01.08. 20:00 16.4° C wolkig
So, 01.08. 14:00 19.2° C wolkig
So, 01.08. 8:00 14.4° C bewölkt
So, 01.08. 2:00 14.7° C wolkig
Ortszeit Temperatur Wetter
Di, 03.08. 1:00 12.2° C wolkenlos
Di, 03.08. 0:40 12.4° C wolkenlos
Di, 03.08. 0:30 12.2° C fast wolkenlos
Di, 03.08. 0:20 12.2° C fast wolkenlos
Di, 03.08. 0:10 12.1° C fast wolkenlos
Di, 03.08. 0:00 12.5° C wolkenlos
Mo, 02.08. 23:50 12.5° C wolkenlos
Mo, 02.08. 23:30 13.1° C wolkenlos
Mo, 02.08. 23:00 12.7° C fast wolkenlos
Mo, 02.08. 22:30 13.4° C bewölkt
Mo, 02.08. 22:00 13.4° C bewölkt
Ortszeit Relative Feuchte Sichtweite
Mo, 02.08. 20:00 93% 22 km
Mo, 02.08. 14:00 67% 45 km
Mo, 02.08. 8:00 96% 16 km
Mo, 02.08. 2:00 98% 6 km
So, 01.08. 20:00 87% 40 km
So, 01.08. 14:00 61% 45 km
So, 01.08. 8:00 96% 12 km
So, 01.08. 2:00 96% 16 km
Ortszeit Relative Feuchte Sichtweite
Di, 03.08. 1:00 92% 18 km
Di, 03.08. 0:40 92% -
Di, 03.08. 0:30 95% 16 km
Di, 03.08. 0:20 95% -
Di, 03.08. 0:10 95% -
Di, 03.08. 0:00 94% 16 km
Mo, 02.08. 23:50 94% -
Mo, 02.08. 23:30 91% 26 km
Mo, 02.08. 23:00 94% 20 km
Mo, 02.08. 22:30 91% 26 km
Mo, 02.08. 22:00 91% 26 km
Ortszeit Niederschlagsmenge Niederschlagsart
Mo, 02.08. 20:00 0.1 l/m2 in 12 Std. Regen
Mo, 02.08. 14:00 0.1 l/m2 in 6 Std. Regen
Mo, 02.08. 8:00 9 l/m2 in 12 Std. Regen
Mo, 02.08. 2:00 9 l/m2 in 6 Std. Regen
So, 01.08. 20:00 12 l/m2 in 12 Std. Regen
So, 01.08. 14:00 0.0 l/m2 in 6 Std. -
So, 01.08. 8:00 2 l/m2 in 12 Std. -
So, 01.08. 2:00 2 l/m2 in 6 Std. Regen
Ortszeit Niederschlagsmenge Niederschlagsart
Di, 03.08. 1:00 0.0 l/m2 in 1 Std. -
Di, 03.08. 0:40 keine Meldung -
Di, 03.08. 0:30 0.0 l/m2 in 1 Std. -
Di, 03.08. 0:20 keine Meldung -
Di, 03.08. 0:10 keine Meldung -
Di, 03.08. 0:00 0.0 l/m2 in 1 Std. -
Mo, 02.08. 23:50 keine Meldung -
Mo, 02.08. 23:30 0.0 l/m2 in 1 Std. -
Mo, 02.08. 23:00 0.0 l/m2 in 1 Std. -
Mo, 02.08. 22:30 0.0 l/m2 in 1 Std. -
Mo, 02.08. 22:00 0.0 l/m2 in 1 Std. -
Ortszeit Stärke Spitze Richtung
km/h Bft. km/h Grad Sektor
Mo, 02.08. 20:00 4 1 25 180° S
Mo, 02.08. 14:00 7 2 14 230° SW
Mo, 02.08. 8:00 2 1 13 220° SW
Mo, 02.08. 2:00 4 1 22 240° SW
So, 01.08. 20:00 7 2 37 230° SW
So, 01.08. 14:00 14 3 32 230° SW
So, 01.08. 8:00 11 2 22 220° SW
So, 01.08. 2:00 9 2 31 220° SW
Ortszeit Stärke Spitze Richtung
km/h Bft. km/h Grad Sektor
Di, 03.08. 1:00 6 1 7 190° S
Di, 03.08. 0:40 6 1 - 180° S
Di, 03.08. 0:30 4 1 7 180° S
Di, 03.08. 0:20 4 1 - 180° S
Di, 03.08. 0:10 4 1 - 170° S
Di, 03.08. 0:00 6 1 9 190° S
Mo, 02.08. 23:50 6 1 - 190° S
Mo, 02.08. 23:30 4 1 7 190° S
Mo, 02.08. 23:00 2 1 7 160° S
Mo, 02.08. 22:30 6 1 7 180° S
Mo, 02.08. 22:00 4 1 7 210° SW
Ortszeit Untergrenze Bedeckung Gattung
total tief tief mittel hoch
Mo, 02.08. 20:00 1800 m 8/8 8/8 - - -
Mo, 02.08. 14:00 1500 m 7/8 7/8 - - -
Mo, 02.08. 8:00 1380 m 8/8 8/8 - - -
Mo, 02.08. 2:00 180 m 8/8 8/8 - - -
So, 01.08. 20:00 750 m 7/8 2/8 - - -
So, 01.08. 14:00 840 m 5/8 5/8 - - -
So, 01.08. 8:00 180 m 7/8 7/8 - - -
So, 01.08. 2:00 2700 m 6/8 7/8 - - -
Ortszeit Bedeckungsgrad in Achtel und Wolkenuntergrenze
Di, 03.08. 1:00 keine Wolken
Di, 03.08. 0:40 keine Wolken
Di, 03.08. 0:30 1(9000m)
Di, 03.08. 0:20 1(9000m)
Di, 03.08. 0:10 2(9000m)
Di, 03.08. 0:00 keine Wolken
Mo, 02.08. 23:50 keine Wolken
Mo, 02.08. 23:30 keine Wolken
Mo, 02.08. 23:00 1(2100m)
Mo, 02.08. 22:30 7(2100m)
Mo, 02.08. 22:00 7(2400m)
Ortszeit Luftdruck NN (hPa) Tendenz (hPa in 3 Std.)
Mo, 02.08. 20:00 1015 + 0,4
Mo, 02.08. 14:00 1014 0,0
Mo, 02.08. 8:00 1014 + 0,6
Mo, 02.08. 2:00 1013 + 0,5
So, 01.08. 20:00 1011 + 0,5
So, 01.08. 14:00 1010 + 0,4
So, 01.08. 8:00 1010 0,0
So, 01.08. 2:00 1010 - 0,2
Ortszeit Luftdruck NN (hPa) Tendenz (hPa in 3 Std.)
Di, 03.08. 1:00 1015 - 0,1
Di, 03.08. 0:40 1015 keine Meldung
Di, 03.08. 0:30 1015 + 0,1
Di, 03.08. 0:20 1015 keine Meldung
Di, 03.08. 0:10 1015 keine Meldung
Di, 03.08. 0:00 1016 + 0,4
Mo, 02.08. 23:50 1016 keine Meldung
Mo, 02.08. 23:30 1016 + 0,5
Mo, 02.08. 23:00 1015 + 0,5
Mo, 02.08. 22:30 1015 + 0,8
Mo, 02.08. 22:00 1015 + 0,6
Ortszeit Schneehöhe (cm)
Mo, 02.08. 20:00 -
Mo, 02.08. 14:00 -
Mo, 02.08. 8:00 -
Mo, 02.08. 2:00 -
So, 01.08. 20:00 -
So, 01.08. 14:00 -
So, 01.08. 8:00 -
So, 01.08. 2:00 -
Ortszeit Schneehöhe (cm)
Di, 03.08. 1:00 -
Di, 03.08. 0:40 -
Di, 03.08. 0:30 -
Di, 03.08. 0:20 -
Di, 03.08. 0:10 -
Di, 03.08. 0:00 -
Mo, 02.08. 23:50 -
Mo, 02.08. 23:30 -
Mo, 02.08. 23:00 -
Mo, 02.08. 22:30 -
Mo, 02.08. 22:00 -
Link zu dieser Seite / Seite empfehlen

Das Wetter in ...